sensor_id;sensor_type;location;lat;lon;timestamp;P1;durP1;ratioP1;P2;durP2;ratioP2
81703;SDS011;71117;52.352;4.808;2023-09-07T00:00:19;8.80;;;6.28;;
81703;SDS011;71117;52.352;4.808;2023-09-07T00:02:47;7.55;;;6.28;;
81703;SDS011;71117;52.352;4.808;2023-09-07T00:05:13;6.72;;;5.78;;
81703;SDS011;71117;52.352;4.808;2023-09-07T00:07:39;9.10;;;6.20;;
81703;SDS011;71117;52.352;4.808;2023-09-07T00:10:04;7.13;;;5.70;;
81703;SDS011;71117;52.352;4.808;2023-09-07T00:12:30;6.65;;;5.88;;
81703;SDS011;71117;52.352;4.808;2023-09-07T00:15:00;7.40;;;5.68;;
81703;SDS011;71117;52.352;4.808;2023-09-07T00:17:39;6.78;;;5.50;;
81703;SDS011;71117;52.352;4.808;2023-09-07T00:20:04;6.13;;;5.53;;
81703;SDS011;71117;52.352;4.808;2023-09-07T00:22:35;7.72;;;6.72;;
81703;SDS011;71117;52.352;4.808;2023-09-07T00:25:01;7.53;;;5.60;;
81703;SDS011;71117;52.352;4.808;2023-09-07T00:27:29;8.73;;;6.00;;
81703;SDS011;71117;52.352;4.808;2023-09-07T00:29:54;8.23;;;6.50;;
81703;SDS011;71117;52.352;4.808;2023-09-07T00:32:20;6.90;;;5.63;;
81703;SDS011;71117;52.352;4.808;2023-09-07T00:34:45;7.15;;;5.20;;
81703;SDS011;71117;52.352;4.808;2023-09-07T00:37:11;6.28;;;5.43;;
81703;SDS011;71117;52.352;4.808;2023-09-07T00:39:37;8.43;;;5.40;;
81703;SDS011;71117;52.352;4.808;2023-09-07T00:42:02;8.32;;;5.57;;
81703;SDS011;71117;52.352;4.808;2023-09-07T00:44:28;8.02;;;5.82;;
81703;SDS011;71117;52.352;4.808;2023-09-07T00:46:53;5.47;;;4.75;;
81703;SDS011;71117;52.352;4.808;2023-09-07T00:49:19;7.45;;;5.18;;
81703;SDS011;71117;52.352;4.808;2023-09-07T00:51:44;7.97;;;5.05;;
81703;SDS011;71117;52.352;4.808;2023-09-07T00:54:11;6.00;;;5.10;;
81703;SDS011;71117;52.352;4.808;2023-09-07T00:56:36;7.00;;;5.20;;
81703;SDS011;71117;52.352;4.808;2023-09-07T00:59:02;9.18;;;4.88;;
81703;SDS011;71117;52.352;4.808;2023-09-07T01:01:27;7.55;;;5.72;;
81703;SDS011;71117;52.352;4.808;2023-09-07T01:03:54;7.40;;;5.43;;
81703;SDS011;71117;52.352;4.808;2023-09-07T01:06:37;6.03;;;5.43;;
81703;SDS011;71117;52.352;4.808;2023-09-07T01:09:11;7.90;;;5.53;;
81703;SDS011;71117;52.352;4.808;2023-09-07T01:11:42;6.30;;;4.80;;
81703;SDS011;71117;52.352;4.808;2023-09-07T01:14:08;6.45;;;5.22;;
81703;SDS011;71117;52.352;4.808;2023-09-07T01:16:35;7.45;;;5.10;;
81703;SDS011;71117;52.352;4.808;2023-09-07T01:19:03;7.72;;;5.22;;
81703;SDS011;71117;52.352;4.808;2023-09-07T01:21:38;5.97;;;5.18;;
81703;SDS011;71117;52.352;4.808;2023-09-07T01:24:06;6.72;;;5.47;;
81703;SDS011;71117;52.352;4.808;2023-09-07T01:26:33;6.97;;;5.68;;
81703;SDS011;71117;52.352;4.808;2023-09-07T01:29:00;6.85;;;5.18;;
81703;SDS011;71117;52.352;4.808;2023-09-07T01:31:26;8.05;;;5.35;;
81703;SDS011;71117;52.352;4.808;2023-09-07T01:33:51;5.63;;;5.10;;
81703;SDS011;71117;52.352;4.808;2023-09-07T01:36:17;8.27;;;5.97;;
81703;SDS011;71117;52.352;4.808;2023-09-07T01:38:42;8.43;;;5.30;;
81703;SDS011;71117;52.352;4.808;2023-09-07T01:41:07;7.78;;;5.22;;
81703;SDS011;71117;52.352;4.808;2023-09-07T01:43:33;7.28;;;5.45;;
81703;SDS011;71117;52.352;4.808;2023-09-07T01:45:58;6.72;;;5.20;;
81703;SDS011;71117;52.352;4.808;2023-09-07T01:48:23;6.45;;;5.43;;
81703;SDS011;71117;52.352;4.808;2023-09-07T01:50:52;5.90;;;5.13;;
81703;SDS011;71117;52.352;4.808;2023-09-07T01:53:18;6.78;;;5.30;;
81703;SDS011;71117;52.352;4.808;2023-09-07T01:55:44;7.47;;;5.70;;
81703;SDS011;71117;52.352;4.808;2023-09-07T01:58:09;6.43;;;5.80;;
81703;SDS011;71117;52.352;4.808;2023-09-07T02:00:39;9.65;;;5.28;;
81703;SDS011;71117;52.352;4.808;2023-09-07T02:03:05;6.75;;;5.20;;
81703;SDS011;71117;52.352;4.808;2023-09-07T02:05:30;5.75;;;4.80;;
81703;SDS011;71117;52.352;4.808;2023-09-07T02:07:57;10.05;;;6.55;;
81703;SDS011;71117;52.352;4.808;2023-09-07T02:10:23;7.93;;;6.07;;
81703;SDS011;71117;52.352;4.808;2023-09-07T02:12:48;8.05;;;6.03;;
81703;SDS011;71117;52.352;4.808;2023-09-07T02:15:15;8.98;;;5.78;;
81703;SDS011;71117;52.352;4.808;2023-09-07T02:17:41;7.97;;;5.07;;
81703;SDS011;71117;52.352;4.808;2023-09-07T02:20:09;7.60;;;5.75;;
81703;SDS011;71117;52.352;4.808;2023-09-07T02:22:37;6.28;;;5.68;;
81703;SDS011;71117;52.352;4.808;2023-09-07T02:25:03;7.00;;;5.85;;
81703;SDS011;71117;52.352;4.808;2023-09-07T02:27:30;8.32;;;6.63;;
81703;SDS011;71117;52.352;4.808;2023-09-07T02:29:57;6.78;;;6.03;;
81703;SDS011;71117;52.352;4.808;2023-09-07T02:32:22;8.23;;;6.65;;
81703;SDS011;71117;52.352;4.808;2023-09-07T02:34:47;7.65;;;6.47;;
81703;SDS011;71117;52.352;4.808;2023-09-07T02:37:13;7.88;;;6.32;;
81703;SDS011;71117;52.352;4.808;2023-09-07T02:39:39;8.30;;;6.30;;
81703;SDS011;71117;52.352;4.808;2023-09-07T02:42:05;7.47;;;6.60;;
81703;SDS011;71117;52.352;4.808;2023-09-07T02:44:31;7.15;;;6.25;;
81703;SDS011;71117;52.352;4.808;2023-09-07T02:46:56;8.57;;;6.28;;
81703;SDS011;71117;52.352;4.808;2023-09-07T02:49:21;11.50;;;6.55;;
81703;SDS011;71117;52.352;4.808;2023-09-07T02:51:47;8.40;;;6.70;;
81703;SDS011;71117;52.352;4.808;2023-09-07T02:54:12;8.35;;;6.50;;
81703;SDS011;71117;52.352;4.808;2023-09-07T02:56:37;9.38;;;6.15;;
81703;SDS011;71117;52.352;4.808;2023-09-07T02:59:03;8.63;;;6.53;;
81703;SDS011;71117;52.352;4.808;2023-09-07T03:01:28;8.25;;;6.90;;
81703;SDS011;71117;52.352;4.808;2023-09-07T03:03:53;10.63;;;6.72;;
81703;SDS011;71117;52.352;4.808;2023-09-07T03:06:19;8.20;;;6.28;;
81703;SDS011;71117;52.352;4.808;2023-09-07T03:08:45;8.68;;;6.72;;
81703;SDS011;71117;52.352;4.808;2023-09-07T03:11:11;9.98;;;7.25;;
81703;SDS011;71117;52.352;4.808;2023-09-07T03:13:37;8.25;;;6.40;;
81703;SDS011;71117;52.352;4.808;2023-09-07T03:16:02;8.80;;;6.85;;
81703;SDS011;71117;52.352;4.808;2023-09-07T03:18:28;8.73;;;7.13;;
81703;SDS011;71117;52.352;4.808;2023-09-07T03:20:54;10.13;;;6.97;;
81703;SDS011;71117;52.352;4.808;2023-09-07T03:23:21;9.75;;;7.13;;
81703;SDS011;71117;52.352;4.808;2023-09-07T03:25:47;7.95;;;6.78;;
81703;SDS011;71117;52.352;4.808;2023-09-07T03:28:13;8.18;;;7.20;;
81703;SDS011;71117;52.352;4.808;2023-09-07T03:30:38;8.15;;;6.88;;
81703;SDS011;71117;52.352;4.808;2023-09-07T03:33:04;9.65;;;6.25;;
81703;SDS011;71117;52.352;4.808;2023-09-07T03:35:30;10.77;;;6.90;;
81703;SDS011;71117;52.352;4.808;2023-09-07T03:37:55;9.05;;;6.45;;
81703;SDS011;71117;52.352;4.808;2023-09-07T03:40:21;10.18;;;7.20;;
81703;SDS011;71117;52.352;4.808;2023-09-07T03:42:46;8.20;;;6.53;;
81703;SDS011;71117;52.352;4.808;2023-09-07T03:45:11;10.98;;;7.30;;
81703;SDS011;71117;52.352;4.808;2023-09-07T03:47:37;10.05;;;6.68;;
81703;SDS011;71117;52.352;4.808;2023-09-07T03:50:03;10.85;;;7.10;;
81703;SDS011;71117;52.352;4.808;2023-09-07T03:52:28;9.63;;;7.10;;
81703;SDS011;71117;52.352;4.808;2023-09-07T03:54:54;10.35;;;8.13;;
81703;SDS011;71117;52.352;4.808;2023-09-07T03:57:20;10.35;;;7.68;;
81703;SDS011;71117;52.352;4.808;2023-09-07T03:59:47;10.98;;;7.07;;
81703;SDS011;71117;52.352;4.808;2023-09-07T04:02:13;9.70;;;7.65;;
81703;SDS011;71117;52.352;4.808;2023-09-07T04:04:38;8.77;;;7.40;;
81703;SDS011;71117;52.352;4.808;2023-09-07T04:07:04;10.20;;;8.65;;
81703;SDS011;71117;52.352;4.808;2023-09-07T04:09:29;8.93;;;7.70;;
81703;SDS011;71117;52.352;4.808;2023-09-07T04:11:55;10.23;;;8.32;;
81703;SDS011;71117;52.352;4.808;2023-09-07T04:14:20;10.57;;;7.68;;
81703;SDS011;71117;52.352;4.808;2023-09-07T04:16:45;9.52;;;8.45;;
81703;SDS011;71117;52.352;4.808;2023-09-07T04:19:11;10.75;;;8.02;;
81703;SDS011;71117;52.352;4.808;2023-09-07T04:21:36;9.68;;;7.75;;
81703;SDS011;71117;52.352;4.808;2023-09-07T04:24:02;9.77;;;8.18;;
81703;SDS011;71117;52.352;4.808;2023-09-07T04:26:27;10.40;;;8.80;;
81703;SDS011;71117;52.352;4.808;2023-09-07T04:28:54;12.43;;;8.35;;
81703;SDS011;71117;52.352;4.808;2023-09-07T04:31:19;9.95;;;7.75;;
81703;SDS011;71117;52.352;4.808;2023-09-07T04:33:45;12.57;;;9.52;;
81703;SDS011;71117;52.352;4.808;2023-09-07T04:36:13;13.90;;;8.35;;
81703;SDS011;71117;52.352;4.808;2023-09-07T04:38:40;11.68;;;9.30;;
81703;SDS011;71117;52.352;4.808;2023-09-07T04:41:06;14.80;;;8.77;;
81703;SDS011;71117;52.352;4.808;2023-09-07T04:43:36;11.07;;;8.57;;
81703;SDS011;71117;52.352;4.808;2023-09-07T04:46:02;10.80;;;8.50;;
81703;SDS011;71117;52.352;4.808;2023-09-07T04:48:28;11.43;;;8.75;;
81703;SDS011;71117;52.352;4.808;2023-09-07T04:50:57;11.43;;;8.38;;
81703;SDS011;71117;52.352;4.808;2023-09-07T04:53:23;12.27;;;8.25;;
81703;SDS011;71117;52.352;4.808;2023-09-07T04:55:48;10.45;;;7.43;;
81703;SDS011;71117;52.352;4.808;2023-09-07T04:58:14;9.23;;;7.63;;
81703;SDS011;71117;52.352;4.808;2023-09-07T05:00:39;9.57;;;7.60;;
81703;SDS011;71117;52.352;4.808;2023-09-07T05:03:04;8.80;;;7.25;;
81703;SDS011;71117;52.352;4.808;2023-09-07T05:05:30;11.38;;;8.07;;
81703;SDS011;71117;52.352;4.808;2023-09-07T05:07:55;9.23;;;7.53;;
81703;SDS011;71117;52.352;4.808;2023-09-07T05:10:20;10.00;;;7.63;;
81703;SDS011;71117;52.352;4.808;2023-09-07T05:12:46;11.43;;;8.70;;
81703;SDS011;71117;52.352;4.808;2023-09-07T05:15:12;10.88;;;7.18;;
81703;SDS011;71117;52.352;4.808;2023-09-07T05:17:37;10.30;;;7.88;;
81703;SDS011;71117;52.352;4.808;2023-09-07T05:20:03;10.88;;;8.88;;
81703;SDS011;71117;52.352;4.808;2023-09-07T05:22:29;9.70;;;7.40;;
81703;SDS011;71117;52.352;4.808;2023-09-07T05:24:54;9.90;;;8.35;;
81703;SDS011;71117;52.352;4.808;2023-09-07T05:27:20;12.25;;;8.32;;
81703;SDS011;71117;52.352;4.808;2023-09-07T05:29:45;9.20;;;7.43;;
81703;SDS011;71117;52.352;4.808;2023-09-07T05:32:10;10.95;;;8.20;;
81703;SDS011;71117;52.352;4.808;2023-09-07T05:34:38;10.98;;;8.00;;
81703;SDS011;71117;52.352;4.808;2023-09-07T05:37:03;10.27;;;7.55;;
81703;SDS011;71117;52.352;4.808;2023-09-07T05:39:28;10.52;;;8.70;;
81703;SDS011;71117;52.352;4.808;2023-09-07T05:41:54;8.68;;;7.35;;
81703;SDS011;71117;52.352;4.808;2023-09-07T05:44:19;10.32;;;7.68;;
81703;SDS011;71117;52.352;4.808;2023-09-07T05:46:44;11.35;;;9.13;;
81703;SDS011;71117;52.352;4.808;2023-09-07T05:49:10;12.20;;;7.63;;
81703;SDS011;71117;52.352;4.808;2023-09-07T05:51:35;10.90;;;7.43;;
81703;SDS011;71117;52.352;4.808;2023-09-07T05:54:00;8.65;;;6.88;;
81703;SDS011;71117;52.352;4.808;2023-09-07T05:56:26;9.40;;;7.70;;
81703;SDS011;71117;52.352;4.808;2023-09-07T05:58:51;9.20;;;6.97;;
81703;SDS011;71117;52.352;4.808;2023-09-07T06:01:16;9.27;;;6.72;;
81703;SDS011;71117;52.352;4.808;2023-09-07T06:03:42;12.52;;;8.05;;
81703;SDS011;71117;52.352;4.808;2023-09-07T06:06:07;18.13;;;10.25;;
81703;SDS011;71117;52.352;4.808;2023-09-07T06:08:33;9.15;;;7.13;;
81703;SDS011;71117;52.352;4.808;2023-09-07T06:10:58;8.20;;;6.88;;
81703;SDS011;71117;52.352;4.808;2023-09-07T06:13:24;10.40;;;7.85;;
81703;SDS011;71117;52.352;4.808;2023-09-07T06:15:50;10.75;;;7.93;;
81703;SDS011;71117;52.352;4.808;2023-09-07T06:18:15;10.65;;;7.00;;
81703;SDS011;71117;52.352;4.808;2023-09-07T06:20:40;8.50;;;6.60;;
81703;SDS011;71117;52.352;4.808;2023-09-07T06:23:06;10.85;;;7.45;;
81703;SDS011;71117;52.352;4.808;2023-09-07T06:25:31;11.23;;;7.25;;
81703;SDS011;71117;52.352;4.808;2023-09-07T06:27:57;9.63;;;6.53;;
81703;SDS011;71117;52.352;4.808;2023-09-07T06:30:22;10.77;;;7.30;;
81703;SDS011;71117;52.352;4.808;2023-09-07T06:32:47;8.38;;;7.15;;
81703;SDS011;71117;52.352;4.808;2023-09-07T06:35:13;10.10;;;7.40;;
81703;SDS011;71117;52.352;4.808;2023-09-07T06:37:39;14.80;;;10.48;;
81703;SDS011;71117;52.352;4.808;2023-09-07T06:40:06;12.00;;;8.93;;
81703;SDS011;71117;52.352;4.808;2023-09-07T06:42:32;12.75;;;7.78;;
81703;SDS011;71117;52.352;4.808;2023-09-07T06:44:57;8.77;;;6.95;;
81703;SDS011;71117;52.352;4.808;2023-09-07T06:47:22;9.00;;;6.60;;
81703;SDS011;71117;52.352;4.808;2023-09-07T06:49:48;11.27;;;6.40;;
81703;SDS011;71117;52.352;4.808;2023-09-07T06:52:13;9.18;;;6.72;;
81703;SDS011;71117;52.352;4.808;2023-09-07T06:54:40;9.05;;;5.78;;
81703;SDS011;71117;52.352;4.808;2023-09-07T06:57:08;7.50;;;5.85;;
81703;SDS011;71117;52.352;4.808;2023-09-07T06:59:34;8.60;;;6.68;;
81703;SDS011;71117;52.352;4.808;2023-09-07T07:02:00;10.00;;;7.18;;
81703;SDS011;71117;52.352;4.808;2023-09-07T07:04:25;9.80;;;7.95;;
81703;SDS011;71117;52.352;4.808;2023-09-07T07:06:51;9.77;;;7.45;;
81703;SDS011;71117;52.352;4.808;2023-09-07T07:09:16;13.95;;;6.53;;
81703;SDS011;71117;52.352;4.808;2023-09-07T07:11:41;6.80;;;5.80;;
81703;SDS011;71117;52.352;4.808;2023-09-07T07:14:08;7.80;;;5.93;;
81703;SDS011;71117;52.352;4.808;2023-09-07T07:16:34;6.45;;;5.32;;
81703;SDS011;71117;52.352;4.808;2023-09-07T07:18:59;6.97;;;5.75;;
81703;SDS011;71117;52.352;4.808;2023-09-07T07:21:25;7.50;;;5.70;;
81703;SDS011;71117;52.352;4.808;2023-09-07T07:23:50;8.68;;;6.07;;
81703;SDS011;71117;52.352;4.808;2023-09-07T07:26:15;6.70;;;5.20;;
81703;SDS011;71117;52.352;4.808;2023-09-07T07:28:42;6.00;;;5.32;;
81703;SDS011;71117;52.352;4.808;2023-09-07T07:31:08;7.35;;;4.70;;
81703;SDS011;71117;52.352;4.808;2023-09-07T07:33:34;7.38;;;4.88;;
81703;SDS011;71117;52.352;4.808;2023-09-07T07:36:00;8.15;;;5.00;;
81703;SDS011;71117;52.352;4.808;2023-09-07T07:38:25;5.97;;;4.88;;
81703;SDS011;71117;52.352;4.808;2023-09-07T07:40:50;6.85;;;5.15;;
81703;SDS011;71117;52.352;4.808;2023-09-07T07:43:17;7.65;;;5.53;;
81703;SDS011;71117;52.352;4.808;2023-09-07T07:45:43;7.85;;;4.53;;
81703;SDS011;71117;52.352;4.808;2023-09-07T07:48:08;6.32;;;5.05;;
81703;SDS011;71117;52.352;4.808;2023-09-07T07:50:37;7.03;;;5.40;;
81703;SDS011;71117;52.352;4.808;2023-09-07T07:53:04;7.90;;;4.30;;
81703;SDS011;71117;52.352;4.808;2023-09-07T07:55:33;5.55;;;4.38;;
81703;SDS011;71117;52.352;4.808;2023-09-07T07:58:03;11.77;;;8.32;;
81703;SDS011;71117;52.352;4.808;2023-09-07T08:00:30;6.82;;;4.72;;
81703;SDS011;71117;52.352;4.808;2023-09-07T08:02:56;9.18;;;4.03;;
81703;SDS011;71117;52.352;4.808;2023-09-07T08:05:21;5.60;;;4.15;;
81703;SDS011;71117;52.352;4.808;2023-09-07T08:07:47;6.35;;;3.97;;
81703;SDS011;71117;52.352;4.808;2023-09-07T08:10:12;5.07;;;4.00;;
81703;SDS011;71117;52.352;4.808;2023-09-07T08:12:37;8.13;;;3.75;;
81703;SDS011;71117;52.352;4.808;2023-09-07T08:15:03;4.53;;;3.95;;
81703;SDS011;71117;52.352;4.808;2023-09-07T08:17:29;6.30;;;4.22;;
81703;SDS011;71117;52.352;4.808;2023-09-07T08:19:55;4.68;;;3.60;;
81703;SDS011;71117;52.352;4.808;2023-09-07T08:22:22;8.43;;;4.40;;
81703;SDS011;71117;52.352;4.808;2023-09-07T08:24:47;6.57;;;3.70;;
81703;SDS011;71117;52.352;4.808;2023-09-07T08:27:13;9.30;;;4.35;;
81703;SDS011;71117;52.352;4.808;2023-09-07T08:29:43;8.40;;;4.60;;
81703;SDS011;71117;52.352;4.808;2023-09-07T08:32:13;6.75;;;3.97;;
81703;SDS011;71117;52.352;4.808;2023-09-07T08:34:39;6.20;;;4.20;;
81703;SDS011;71117;52.352;4.808;2023-09-07T08:37:05;6.20;;;3.95;;
81703;SDS011;71117;52.352;4.808;2023-09-07T08:39:33;7.95;;;4.13;;
81703;SDS011;71117;52.352;4.808;2023-09-07T08:41:59;7.13;;;4.10;;
81703;SDS011;71117;52.352;4.808;2023-09-07T08:44:26;5.88;;;4.53;;
81703;SDS011;71117;52.352;4.808;2023-09-07T08:46:51;5.50;;;3.60;;
81703;SDS011;71117;52.352;4.808;2023-09-07T08:49:18;6.72;;;4.28;;
81703;SDS011;71117;52.352;4.808;2023-09-07T08:51:44;5.28;;;3.60;;
81703;SDS011;71117;52.352;4.808;2023-09-07T08:54:09;5.28;;;3.80;;
81703;SDS011;71117;52.352;4.808;2023-09-07T08:56:36;7.18;;;4.43;;
81703;SDS011;71117;52.352;4.808;2023-09-07T08:59:02;8.95;;;3.85;;
81703;SDS011;71117;52.352;4.808;2023-09-07T09:01:29;7.82;;;4.20;;
81703;SDS011;71117;52.352;4.808;2023-09-07T09:03:56;5.55;;;4.00;;
81703;SDS011;71117;52.352;4.808;2023-09-07T09:06:22;9.68;;;4.22;;
81703;SDS011;71117;52.352;4.808;2023-09-07T09:08:49;6.50;;;4.00;;
81703;SDS011;71117;52.352;4.808;2023-09-07T09:11:17;3.85;;;3.45;;
81703;SDS011;71117;52.352;4.808;2023-09-07T09:13:43;4.93;;;3.90;;
81703;SDS011;71117;52.352;4.808;2023-09-07T09:16:09;7.28;;;4.00;;
81703;SDS011;71117;52.352;4.808;2023-09-07T09:18:35;4.55;;;3.65;;
81703;SDS011;71117;52.352;4.808;2023-09-07T09:21:00;6.40;;;3.95;;
81703;SDS011;71117;52.352;4.808;2023-09-07T09:23:35;7.30;;;4.03;;
81703;SDS011;71117;52.352;4.808;2023-09-07T09:26:02;5.93;;;3.90;;
81703;SDS011;71117;52.352;4.808;2023-09-07T09:28:32;6.25;;;4.00;;
81703;SDS011;71117;52.352;4.808;2023-09-07T09:30:59;5.63;;;3.90;;
81703;SDS011;71117;52.352;4.808;2023-09-07T09:33:25;4.30;;;3.60;;
81703;SDS011;71117;52.352;4.808;2023-09-07T09:35:53;6.25;;;3.92;;
81703;SDS011;71117;52.352;4.808;2023-09-07T09:38:19;4.07;;;3.53;;
81703;SDS011;71117;52.352;4.808;2023-09-07T09:40:45;5.50;;;3.70;;
81703;SDS011;71117;52.352;4.808;2023-09-07T09:43:10;6.32;;;3.53;;
81703;SDS011;71117;52.352;4.808;2023-09-07T09:45:37;8.10;;;4.22;;
81703;SDS011;71117;52.352;4.808;2023-09-07T09:48:03;5.03;;;4.28;;
81703;SDS011;71117;52.352;4.808;2023-09-07T09:50:30;6.60;;;4.05;;
81703;SDS011;71117;52.352;4.808;2023-09-07T09:52:56;7.15;;;4.18;;
81703;SDS011;71117;52.352;4.808;2023-09-07T09:55:23;5.63;;;4.00;;
81703;SDS011;71117;52.352;4.808;2023-09-07T09:57:49;5.90;;;3.95;;
81703;SDS011;71117;52.352;4.808;2023-09-07T10:00:15;4.43;;;3.78;;
81703;SDS011;71117;52.352;4.808;2023-09-07T10:02:42;6.10;;;4.20;;
81703;SDS011;71117;52.352;4.808;2023-09-07T10:05:10;7.25;;;4.43;;
81703;SDS011;71117;52.352;4.808;2023-09-07T10:07:42;5.97;;;4.32;;
81703;SDS011;71117;52.352;4.808;2023-09-07T10:10:12;4.85;;;3.97;;
81703;SDS011;71117;52.352;4.808;2023-09-07T10:12:42;4.63;;;4.07;;
81703;SDS011;71117;52.352;4.808;2023-09-07T10:15:19;8.77;;;3.67;;
81703;SDS011;71117;52.352;4.808;2023-09-07T10:18:05;6.47;;;3.92;;
81703;SDS011;71117;52.352;4.808;2023-09-07T10:20:48;4.78;;;3.72;;
81703;SDS011;71117;52.352;4.808;2023-09-07T10:23:15;4.38;;;3.92;;
81703;SDS011;71117;52.352;4.808;2023-09-07T10:25:40;7.35;;;3.92;;
81703;SDS011;71117;52.352;4.808;2023-09-07T10:28:06;5.30;;;3.40;;
81703;SDS011;71117;52.352;4.808;2023-09-07T10:30:42;4.88;;;3.97;;
81703;SDS011;71117;52.352;4.808;2023-09-07T10:33:18;5.78;;;4.30;;
81703;SDS011;71117;52.352;4.808;2023-09-07T10:35:44;4.70;;;4.30;;
81703;SDS011;71117;52.352;4.808;2023-09-07T10:38:13;4.43;;;3.97;;
81703;SDS011;71117;52.352;4.808;2023-09-07T10:40:38;6.25;;;4.22;;
81703;SDS011;71117;52.352;4.808;2023-09-07T10:43:04;4.63;;;3.60;;
81703;SDS011;71117;52.352;4.808;2023-09-07T10:45:30;4.65;;;3.75;;
81703;SDS011;71117;52.352;4.808;2023-09-07T10:47:55;5.47;;;3.92;;
81703;SDS011;71117;52.352;4.808;2023-09-07T10:50:21;4.57;;;4.13;;
81703;SDS011;71117;52.352;4.808;2023-09-07T10:52:46;4.93;;;4.00;;
81703;SDS011;71117;52.352;4.808;2023-09-07T10:55:11;4.55;;;3.88;;
81703;SDS011;71117;52.352;4.808;2023-09-07T10:57:44;5.20;;;3.83;;
81703;SDS011;71117;52.352;4.808;2023-09-07T11:00:10;4.75;;;3.65;;
81703;SDS011;71117;52.352;4.808;2023-09-07T11:02:37;4.90;;;4.32;;
81703;SDS011;71117;52.352;4.808;2023-09-07T11:05:03;5.65;;;4.20;;
81703;SDS011;71117;52.352;4.808;2023-09-07T11:07:29;4.97;;;4.18;;
81703;SDS011;71117;52.352;4.808;2023-09-07T11:09:54;4.82;;;3.80;;
81703;SDS011;71117;52.352;4.808;2023-09-07T11:12:20;4.43;;;4.00;;
81703;SDS011;71117;52.352;4.808;2023-09-07T11:14:49;4.78;;;4.18;;
81703;SDS011;71117;52.352;4.808;2023-09-07T11:17:15;4.90;;;4.10;;
81703;SDS011;71117;52.352;4.808;2023-09-07T11:19:41;5.32;;;4.05;;
81703;SDS011;71117;52.352;4.808;2023-09-07T11:22:09;6.20;;;4.15;;
81703;SDS011;71117;52.352;4.808;2023-09-07T11:24:34;4.03;;;3.65;;
81703;SDS011;71117;52.352;4.808;2023-09-07T11:27:00;4.20;;;3.90;;
81703;SDS011;71117;52.352;4.808;2023-09-07T11:29:25;4.75;;;4.35;;
81703;SDS011;71117;52.352;4.808;2023-09-07T11:31:51;5.45;;;4.07;;
81703;SDS011;71117;52.352;4.808;2023-09-07T11:34:16;4.78;;;4.22;;
81703;SDS011;71117;52.352;4.808;2023-09-07T11:36:42;4.35;;;3.58;;
81703;SDS011;71117;52.352;4.808;2023-09-07T11:39:08;6.55;;;4.43;;
81703;SDS011;71117;52.352;4.808;2023-09-07T11:41:38;5.43;;;4.18;;
81703;SDS011;71117;52.352;4.808;2023-09-07T11:44:08;6.82;;;4.80;;
81703;SDS011;71117;52.352;4.808;2023-09-07T11:46:34;5.25;;;4.75;;
81703;SDS011;71117;52.352;4.808;2023-09-07T11:48:59;8.38;;;5.03;;
81703;SDS011;71117;52.352;4.808;2023-09-07T11:51:25;5.00;;;4.30;;
81703;SDS011;71117;52.352;4.808;2023-09-07T11:53:50;4.60;;;4.15;;
81703;SDS011;71117;52.352;4.808;2023-09-07T11:56:15;8.35;;;4.82;;
81703;SDS011;71117;52.352;4.808;2023-09-07T11:58:41;5.03;;;4.38;;
81703;SDS011;71117;52.352;4.808;2023-09-07T12:01:07;4.47;;;4.07;;
81703;SDS011;71117;52.352;4.808;2023-09-07T12:03:33;7.65;;;4.78;;
81703;SDS011;71117;52.352;4.808;2023-09-07T12:05:59;5.82;;;4.57;;
81703;SDS011;71117;52.352;4.808;2023-09-07T12:08:25;4.63;;;4.22;;
81703;SDS011;71117;52.352;4.808;2023-09-07T12:10:50;4.68;;;4.35;;
81703;SDS011;71117;52.352;4.808;2023-09-07T12:13:16;5.43;;;4.30;;
81703;SDS011;71117;52.352;4.808;2023-09-07T12:15:41;5.07;;;4.68;;
81703;SDS011;71117;52.352;4.808;2023-09-07T12:18:06;4.57;;;4.20;;
81703;SDS011;71117;52.352;4.808;2023-09-07T12:20:32;4.82;;;4.40;;
81703;SDS011;71117;52.352;4.808;2023-09-07T12:22:59;8.43;;;5.13;;
81703;SDS011;71117;52.352;4.808;2023-09-07T12:25:25;5.53;;;4.22;;
81703;SDS011;71117;52.352;4.808;2023-09-07T12:27:50;6.40;;;4.43;;
81703;SDS011;71117;52.352;4.808;2023-09-07T12:30:17;4.63;;;4.25;;
81703;SDS011;71117;52.352;4.808;2023-09-07T12:32:45;4.80;;;4.25;;
81703;SDS011;71117;52.352;4.808;2023-09-07T12:35:10;6.15;;;4.53;;
81703;SDS011;71117;52.352;4.808;2023-09-07T12:37:35;4.78;;;4.38;;
81703;SDS011;71117;52.352;4.808;2023-09-07T12:40:02;5.15;;;4.38;;
81703;SDS011;71117;52.352;4.808;2023-09-07T12:42:31;7.28;;;4.05;;
81703;SDS011;71117;52.352;4.808;2023-09-07T12:44:57;5.07;;;4.57;;
81703;SDS011;71117;52.352;4.808;2023-09-07T12:47:22;5.57;;;4.22;;
81703;SDS011;71117;52.352;4.808;2023-09-07T12:49:47;5.10;;;4.03;;
81703;SDS011;71117;52.352;4.808;2023-09-07T12:52:13;6.28;;;4.40;;
81703;SDS011;71117;52.352;4.808;2023-09-07T12:54:39;4.40;;;4.03;;
81703;SDS011;71117;52.352;4.808;2023-09-07T12:57:05;5.40;;;4.10;;
81703;SDS011;71117;52.352;4.808;2023-09-07T12:59:30;7.10;;;4.05;;
81703;SDS011;71117;52.352;4.808;2023-09-07T13:01:55;4.60;;;4.20;;
81703;SDS011;71117;52.352;4.808;2023-09-07T13:04:21;5.00;;;4.35;;
81703;SDS011;71117;52.352;4.808;2023-09-07T13:06:47;5.45;;;4.13;;
81703;SDS011;71117;52.352;4.808;2023-09-07T13:09:12;5.80;;;3.58;;
81703;SDS011;71117;52.352;4.808;2023-09-07T13:11:38;3.97;;;3.63;;
81703;SDS011;71117;52.352;4.808;2023-09-07T13:14:04;4.82;;;4.22;;
81703;SDS011;71117;52.352;4.808;2023-09-07T13:16:30;5.65;;;4.57;;
81703;SDS011;71117;52.352;4.808;2023-09-07T13:18:57;4.65;;;4.25;;
81703;SDS011;71117;52.352;4.808;2023-09-07T13:21:23;4.70;;;4.30;;
81703;SDS011;71117;52.352;4.808;2023-09-07T13:23:48;5.03;;;4.40;;
81703;SDS011;71117;52.352;4.808;2023-09-07T13:26:14;5.03;;;4.60;;
81703;SDS011;71117;52.352;4.808;2023-09-07T13:28:39;5.20;;;4.80;;
81703;SDS011;71117;52.352;4.808;2023-09-07T13:31:05;5.10;;;4.70;;
81703;SDS011;71117;52.352;4.808;2023-09-07T13:33:30;4.88;;;4.43;;
81703;SDS011;71117;52.352;4.808;2023-09-07T13:35:56;6.82;;;4.25;;
81703;SDS011;71117;52.352;4.808;2023-09-07T13:38:21;5.03;;;4.28;;
81703;SDS011;71117;52.352;4.808;2023-09-07T13:40:47;6.35;;;4.43;;
81703;SDS011;71117;52.352;4.808;2023-09-07T13:43:12;4.90;;;4.45;;
81703;SDS011;71117;52.352;4.808;2023-09-07T13:45:37;5.22;;;4.75;;
81703;SDS011;71117;52.352;4.808;2023-09-07T13:48:03;6.90;;;4.97;;
81703;SDS011;71117;52.352;4.808;2023-09-07T13:50:29;4.53;;;4.22;;
81703;SDS011;71117;52.352;4.808;2023-09-07T13:52:55;4.65;;;4.25;;
81703;SDS011;71117;52.352;4.808;2023-09-07T13:55:21;5.28;;;4.22;;
81703;SDS011;71117;52.352;4.808;2023-09-07T13:57:46;6.93;;;4.60;;
81703;SDS011;71117;52.352;4.808;2023-09-07T14:00:12;5.20;;;4.57;;
81703;SDS011;71117;52.352;4.808;2023-09-07T14:02:38;5.30;;;4.45;;
81703;SDS011;71117;52.352;4.808;2023-09-07T14:05:03;5.47;;;4.53;;
81703;SDS011;71117;52.352;4.808;2023-09-07T14:07:30;4.97;;;4.57;;
81703;SDS011;71117;52.352;4.808;2023-09-07T14:09:55;6.78;;;5.05;;
81703;SDS011;71117;52.352;4.808;2023-09-07T14:12:21;5.28;;;4.85;;
81703;SDS011;71117;52.352;4.808;2023-09-07T14:14:47;4.95;;;4.55;;
81703;SDS011;71117;52.352;4.808;2023-09-07T14:17:13;5.57;;;5.07;;
81703;SDS011;71117;52.352;4.808;2023-09-07T14:19:38;4.93;;;4.53;;
81703;SDS011;71117;52.352;4.808;2023-09-07T14:22:04;8.95;;;4.82;;
81703;SDS011;71117;52.352;4.808;2023-09-07T14:24:29;5.28;;;4.78;;
81703;SDS011;71117;52.352;4.808;2023-09-07T14:26:54;5.20;;;4.80;;
81703;SDS011;71117;52.352;4.808;2023-09-07T14:29:20;5.35;;;4.82;;
81703;SDS011;71117;52.352;4.808;2023-09-07T14:31:45;4.18;;;3.88;;
81703;SDS011;71117;52.352;4.808;2023-09-07T14:34:11;4.88;;;4.47;;
81703;SDS011;71117;52.352;4.808;2023-09-07T14:36:37;5.00;;;4.60;;
81703;SDS011;71117;52.352;4.808;2023-09-07T14:39:05;6.93;;;4.60;;